sensor_id;sensor_type;location;lat;lon;timestamp;pressure;altitude;pressure_sealevel;temperature;humidity
6778;BME280;3426;52.244;10.534;2023-02-13T00:00:52;102961.28;;;11.55;73.70
6778;BME280;3426;52.244;10.534;2023-02-13T00:03:19;102961.38;;;11.50;73.15
6778;BME280;3426;52.244;10.534;2023-02-13T00:05:45;102956.97;;;11.49;73.12
6778;BME280;3426;52.244;10.534;2023-02-13T00:08:12;102956.88;;;11.54;73.27
6778;BME280;3426;52.244;10.534;2023-02-13T00:10:38;102962.06;;;11.60;72.57
6778;BME280;3426;52.244;10.534;2023-02-13T00:13:05;102960.25;;;11.62;72.66
6778;BME280;3426;52.244;10.534;2023-02-13T00:15:31;102953.28;;;11.58;73.11
6778;BME280;3426;52.244;10.534;2023-02-13T00:17:58;102955.94;;;11.58;72.78
6778;BME280;3426;52.244;10.534;2023-02-13T00:20:25;102958.72;;;11.50;72.98
6778;BME280;3426;52.244;10.534;2023-02-13T00:22:51;102959.59;;;11.52;72.68
6778;BME280;3426;52.244;10.534;2023-02-13T00:25:18;102958.81;;;11.46;73.92
6778;BME280;3426;52.244;10.534;2023-02-13T00:27:44;102953.19;;;11.61;72.62
6778;BME280;3426;52.244;10.534;2023-02-13T00:30:11;102962.25;;;11.51;73.72
6778;BME280;3426;52.244;10.534;2023-02-13T00:32:38;102957.72;;;11.57;72.69
6778;BME280;3426;52.244;10.534;2023-02-13T00:35:05;102953.13;;;11.64;72.15
6778;BME280;3426;52.244;10.534;2023-02-13T00:37:32;102949.47;;;11.68;71.97
6778;BME280;3426;52.244;10.534;2023-02-13T00:39:58;102950.84;;;11.46;72.63
6778;BME280;3426;52.244;10.534;2023-02-13T00:42:25;102950.75;;;11.50;72.60
6778;BME280;3426;52.244;10.534;2023-02-13T00:44:52;102948.16;;;11.49;72.10
6778;BME280;3426;52.244;10.534;2023-02-13T00:47:19;102946.72;;;11.32;73.42
6778;BME280;3426;52.244;10.534;2023-02-13T00:49:46;102952.56;;;11.05;74.46
6778;BME280;3426;52.244;10.534;2023-02-13T00:52:12;102962.31;;;11.04;74.06
6778;BME280;3426;52.244;10.534;2023-02-13T00:54:39;102956.53;;;10.82;75.88
6778;BME280;3426;52.244;10.534;2023-02-13T00:57:05;102957.63;;;10.71;76.81
6778;BME280;3426;52.244;10.534;2023-02-13T00:59:32;102963.81;;;10.71;76.79
6778;BME280;3426;52.244;10.534;2023-02-13T01:01:58;102956.09;;;11.07;75.53
6778;BME280;3426;52.244;10.534;2023-02-13T01:04:25;102952.03;;;10.87;76.50
6778;BME280;3426;52.244;10.534;2023-02-13T01:06:51;102951.97;;;11.34;74.46
6778;BME280;3426;52.244;10.534;2023-02-13T01:09:18;102961.63;;;11.38;73.62
6778;BME280;3426;52.244;10.534;2023-02-13T01:11:44;102958.16;;;11.34;73.67
6778;BME280;3426;52.244;10.534;2023-02-13T01:14:11;102948.19;;;11.47;73.79
6778;BME280;3426;52.244;10.534;2023-02-13T01:16:37;102950.03;;;11.44;73.34
6778;BME280;3426;52.244;10.534;2023-02-13T01:19:04;102939.53;;;11.37;73.37
6778;BME280;3426;52.244;10.534;2023-02-13T01:21:30;102941.28;;;11.38;73.58
6778;BME280;3426;52.244;10.534;2023-02-13T01:23:57;102936.75;;;11.44;72.85
6778;BME280;3426;52.244;10.534;2023-02-13T01:26:23;102932.13;;;11.53;72.95
6778;BME280;3426;52.244;10.534;2023-02-13T01:28:54;102930.34;;;11.54;72.82
6778;BME280;3426;52.244;10.534;2023-02-13T01:31:21;102934.50;;;11.65;72.39
6778;BME280;3426;52.244;10.534;2023-02-13T01:33:47;102929.25;;;11.64;72.28
6778;BME280;3426;52.244;10.534;2023-02-13T01:36:14;102927.84;;;11.48;72.99
6778;BME280;3426;52.244;10.534;2023-02-13T01:38:41;102925.84;;;11.57;72.35
6778;BME280;3426;52.244;10.534;2023-02-13T01:41:08;102927.19;;;11.36;73.33
6778;BME280;3426;52.244;10.534;2023-02-13T01:46:10;102911.28;;;11.36;73.56
6778;BME280;3426;52.244;10.534;2023-02-13T01:48:37;102911.28;;;11.36;73.56
6778;BME280;3426;52.244;10.534;2023-02-13T01:51:07;102914.97;;;11.28;73.55
6778;BME280;3426;52.244;10.534;2023-02-13T01:53:41;102914.84;;;11.35;74.02
6778;BME280;3426;52.244;10.534;2023-02-13T01:56:16;102911.28;;;11.36;72.96
6778;BME280;3426;52.244;10.534;2023-02-13T01:58:47;102909.72;;;11.26;73.64
6778;BME280;3426;52.244;10.534;2023-02-13T02:01:16;102908.63;;;11.36;73.39
6778;BME280;3426;52.244;10.534;2023-02-13T02:03:56;102908.41;;;11.46;72.91
6778;BME280;3426;52.244;10.534;2023-02-13T02:06:27;102916.03;;;11.21;73.65
6778;BME280;3426;52.244;10.534;2023-02-13T02:09:00;102914.84;;;11.35;73.20
6778;BME280;3426;52.244;10.534;2023-02-13T02:11:40;102911.06;;;11.46;72.81
6778;BME280;3426;52.244;10.534;2023-02-13T02:14:07;102906.28;;;11.63;71.96
6778;BME280;3426;52.244;10.534;2023-02-13T02:16:34;102899.31;;;11.57;72.00
6778;BME280;3426;52.244;10.534;2023-02-13T02:19:03;102903.81;;;11.54;72.18
6778;BME280;3426;52.244;10.534;2023-02-13T02:21:58;102906.00;;;11.35;73.04
6778;BME280;3426;52.244;10.534;2023-02-13T02:29:43;102905.75;;;11.46;71.79
6778;BME280;3426;52.244;10.534;2023-02-13T02:35:21;102903.53;;;11.66;71.94
6778;BME280;3426;52.244;10.534;2023-02-13T02:38:09;102905.50;;;11.58;71.93
6778;BME280;3426;52.244;10.534;2023-02-13T02:44:14;102902.91;;;11.55;72.32
6778;BME280;3426;52.244;10.534;2023-02-13T02:46:36;102895.06;;;11.49;72.56
6778;BME280;3426;52.244;10.534;2023-02-13T02:49:13;102897.78;;;11.47;72.59
6778;BME280;3426;52.244;10.534;2023-02-13T02:52:06;102894.00;;;11.57;71.41
6778;BME280;3426;52.244;10.534;2023-02-13T02:54:41;102894.25;;;11.45;71.79
6778;BME280;3426;52.244;10.534;2023-02-13T02:57:31;102891.06;;;11.31;72.59
6778;BME280;3426;52.244;10.534;2023-02-13T03:00:19;102884.97;;;11.26;72.50
6778;BME280;3426;52.244;10.534;2023-02-13T03:03:16;102878.38;;;11.44;72.04
6778;BME280;3426;52.244;10.534;2023-02-13T03:06:05;102876.59;;;11.44;72.39
6778;BME280;3426;52.244;10.534;2023-02-13T03:09:00;102879.19;;;11.05;73.56
6778;BME280;3426;52.244;10.534;2023-02-13T03:11:48;102879.34;;;11.39;72.73
6778;BME280;3426;52.244;10.534;2023-02-13T03:14:34;102882.69;;;11.49;71.57
6778;BME280;3426;52.244;10.534;2023-02-13T03:17:02;102878.63;;;11.33;72.37
6778;BME280;3426;52.244;10.534;2023-02-13T03:22:59;102885.78;;;11.29;73.09
6778;BME280;3426;52.244;10.534;2023-02-13T03:28:05;102886.81;;;10.79;74.32
6778;BME280;3426;52.244;10.534;2023-02-13T03:31:29;102886.63;;;10.90;75.29
6778;BME280;3426;52.244;10.534;2023-02-13T03:34:06;102889.81;;;11.46;72.66
6778;BME280;3426;52.244;10.534;2023-02-13T03:42:13;102882.13;;;11.35;71.89
6778;BME280;3426;52.244;10.534;2023-02-13T03:44:59;102888.81;;;11.11;72.37
6778;BME280;3426;52.244;10.534;2023-02-13T03:47:46;102882.44;;;11.20;72.96
6778;BME280;3426;52.244;10.534;2023-02-13T03:50:14;102877.47;;;11.45;71.57
6778;BME280;3426;52.244;10.534;2023-02-13T03:52:54;102877.50;;;11.43;71.86
6778;BME280;3426;52.244;10.534;2023-02-13T03:55:27;102885.59;;;11.37;71.14
6778;BME280;3426;52.244;10.534;2023-02-13T03:58:21;102893.47;;;11.41;71.68
6778;BME280;3426;52.244;10.534;2023-02-13T04:01:11;102890.00;;;11.38;71.43
6778;BME280;3426;52.244;10.534;2023-02-13T04:06:13;102891.72;;;11.40;71.97
6778;BME280;3426;52.244;10.534;2023-02-13T04:08:41;102889.91;;;11.43;71.45
6778;BME280;3426;52.244;10.534;2023-02-13T04:11:24;102888.44;;;11.29;72.06
6778;BME280;3426;52.244;10.534;2023-02-13T04:13:58;102891.28;;;11.20;71.82
6778;BME280;3426;52.244;10.534;2023-02-13T04:16:38;102893.25;;;11.51;71.02
6778;BME280;3426;52.244;10.534;2023-02-13T04:19:06;102892.84;;;11.30;72.09
6778;BME280;3426;52.244;10.534;2023-02-13T04:21:35;102892.63;;;11.39;71.12
6778;BME280;3426;52.244;10.534;2023-02-13T04:24:02;102891.53;;;11.08;72.90
6778;BME280;3426;52.244;10.534;2023-02-13T04:26:35;102888.81;;;11.11;72.16
6778;BME280;3426;52.244;10.534;2023-02-13T04:29:02;102889.00;;;11.02;73.02
6778;BME280;3426;52.244;10.534;2023-02-13T04:31:29;102883.63;;;11.05;72.26
6778;BME280;3426;52.244;10.534;2023-02-13T04:33:56;102881.50;;;11.22;72.02
6778;BME280;3426;52.244;10.534;2023-02-13T04:36:22;102879.84;;;11.18;71.93
6778;BME280;3426;52.244;10.534;2023-02-13T04:38:49;102887.06;;;11.10;71.88
6778;BME280;3426;52.244;10.534;2023-02-13T04:41:16;102885.66;;;10.92;72.89
6778;BME280;3426;52.244;10.534;2023-02-13T04:43:43;102881.81;;;11.08;72.38
6778;BME280;3426;52.244;10.534;2023-02-13T04:46:10;102878.53;;;10.96;72.90
6778;BME280;3426;52.244;10.534;2023-02-13T04:48:36;102878.84;;;10.80;72.33
6778;BME280;3426;52.244;10.534;2023-02-13T04:51:04;102878.66;;;10.90;73.00
6778;BME280;3426;52.244;10.534;2023-02-13T04:53:31;102874.84;;;11.03;72.55
6778;BME280;3426;52.244;10.534;2023-02-13T04:55:57;102869.53;;;11.03;72.67
6778;BME280;3426;52.244;10.534;2023-02-13T04:58:24;102867.94;;;10.96;72.95
6778;BME280;3426;52.244;10.534;2023-02-13T05:00:50;102868.72;;;10.99;72.74
6778;BME280;3426;52.244;10.534;2023-02-13T05:03:16;102865.63;;;11.21;71.62
6778;BME280;3426;52.244;10.534;2023-02-13T05:05:43;102859.53;;;11.15;71.23
6778;BME280;3426;52.244;10.534;2023-02-13T05:08:10;102863.59;;;10.92;72.82
6778;BME280;3426;52.244;10.534;2023-02-13T05:10:36;102866.81;;;11.06;72.30
6778;BME280;3426;52.244;10.534;2023-02-13T05:13:03;102869.38;;;11.10;72.22
6778;BME280;3426;52.244;10.534;2023-02-13T05:15:29;102873.44;;;11.27;71.90
6778;BME280;3426;52.244;10.534;2023-02-13T05:17:56;102871.09;;;11.13;71.47
6778;BME280;3426;52.244;10.534;2023-02-13T05:20:22;102868.84;;;10.93;71.66
6778;BME280;3426;52.244;10.534;2023-02-13T05:22:51;102870.97;;;11.19;71.42
6778;BME280;3426;52.244;10.534;2023-02-13T05:25:38;102875.00;;;10.95;72.38
6778;BME280;3426;52.244;10.534;2023-02-13T05:28:06;102880.91;;;10.65;73.75
6778;BME280;3426;52.244;10.534;2023-02-13T05:30:56;102883.50;;;10.68;74.10
6778;BME280;3426;52.244;10.534;2023-02-13T05:33:23;102884.28;;;11.16;72.58
6778;BME280;3426;52.244;10.534;2023-02-13T05:35:50;102885.78;;;11.29;70.89
6778;BME280;3426;52.244;10.534;2023-02-13T05:38:16;102883.81;;;11.37;70.74
6778;BME280;3426;52.244;10.534;2023-02-13T05:40:42;102881.06;;;11.42;71.27
6778;BME280;3426;52.244;10.534;2023-02-13T05:43:09;102885.41;;;11.46;70.99
6778;BME280;3426;52.244;10.534;2023-02-13T05:45:35;102882.78;;;11.45;70.83
6778;BME280;3426;52.244;10.534;2023-02-13T05:48:02;102880.22;;;11.41;70.39
6778;BME280;3426;52.244;10.534;2023-02-13T05:50:28;102881.84;;;11.47;70.74
6778;BME280;3426;52.244;10.534;2023-02-13T05:52:55;102884.66;;;11.41;70.78
6778;BME280;3426;52.244;10.534;2023-02-13T05:55:21;102884.09;;;11.25;70.56
6778;BME280;3426;52.244;10.534;2023-02-13T05:57:48;102888.72;;;11.15;70.20
6778;BME280;3426;52.244;10.534;2023-02-13T06:00:15;102881.56;;;11.19;70.88
6778;BME280;3426;52.244;10.534;2023-02-13T06:02:41;102885.28;;;11.10;70.46
6778;BME280;3426;52.244;10.534;2023-02-13T06:05:08;102884.28;;;11.18;70.79
6778;BME280;3426;52.244;10.534;2023-02-13T06:07:34;102878.78;;;11.25;70.57
6778;BME280;3426;52.244;10.534;2023-02-13T06:10:01;102890.97;;;11.34;70.95
6778;BME280;3426;52.244;10.534;2023-02-13T06:12:28;102884.59;;;11.43;69.95
6778;BME280;3426;52.244;10.534;2023-02-13T06:14:54;102889.03;;;11.42;70.21
6778;BME280;3426;52.244;10.534;2023-02-13T06:17:20;102882.28;;;11.27;70.32
6778;BME280;3426;52.244;10.534;2023-02-13T06:19:47;102890.97;;;11.35;70.89
6778;BME280;3426;52.244;10.534;2023-02-13T06:22:13;102882.00;;;11.41;70.20
6778;BME280;3426;52.244;10.534;2023-02-13T06:24:40;102882.88;;;11.41;70.18
6778;BME280;3426;52.244;10.534;2023-02-13T06:27:06;102895.63;;;11.24;70.72
6778;BME280;3426;52.244;10.534;2023-02-13T06:29:33;102898.91;;;11.35;70.56
6778;BME280;3426;52.244;10.534;2023-02-13T06:31:59;102901.34;;;11.46;70.25
6778;BME280;3426;52.244;10.534;2023-02-13T06:34:26;102906.75;;;11.41;69.82
6778;BME280;3426;52.244;10.534;2023-02-13T06:36:52;102910.69;;;11.22;70.45
6778;BME280;3426;52.244;10.534;2023-02-13T06:39:19;102905.91;;;11.38;69.94
6778;BME280;3426;52.244;10.534;2023-02-13T06:41:45;102897.28;;;11.30;70.12
6778;BME280;3426;52.244;10.534;2023-02-13T06:44:12;102907.75;;;11.34;69.49
6778;BME280;3426;52.244;10.534;2023-02-13T06:46:38;102916.72;;;11.30;69.56
6778;BME280;3426;52.244;10.534;2023-02-13T06:49:04;102920.00;;;11.40;68.75
6778;BME280;3426;52.244;10.534;2023-02-13T06:51:31;102925.56;;;11.29;70.05
6778;BME280;3426;52.244;10.534;2023-02-13T06:53:57;102917.59;;;11.31;69.94
6778;BME280;3426;52.244;10.534;2023-02-13T06:56:24;102916.50;;;11.39;69.68
6778;BME280;3426;52.244;10.534;2023-02-13T06:58:51;102915.09;;;11.22;70.18
6778;BME280;3426;52.244;10.534;2023-02-13T07:01:18;102915.81;;;10.86;71.13
6778;BME280;3426;52.244;10.534;2023-02-13T07:03:44;102920.31;;;11.26;70.10
6778;BME280;3426;52.244;10.534;2023-02-13T07:06:16;102911.06;;;11.46;69.79
6778;BME280;3426;52.244;10.534;2023-02-13T07:08:43;102918.22;;;11.42;69.60
6778;BME280;3426;52.244;10.534;2023-02-13T07:11:16;102926.59;;;11.22;70.21
6778;BME280;3426;52.244;10.534;2023-02-13T07:13:43;102925.72;;;11.23;70.67
6778;BME280;3426;52.244;10.534;2023-02-13T07:16:09;102927.63;;;11.15;70.78
6778;BME280;3426;52.244;10.534;2023-02-13T07:18:36;102927.97;;;11.40;69.90
6778;BME280;3426;52.244;10.534;2023-02-13T07:21:04;102926.22;;;11.40;69.47
6778;BME280;3426;52.244;10.534;2023-02-13T07:23:30;102924.28;;;11.49;68.50
6778;BME280;3426;52.244;10.534;2023-02-13T07:26:00;102915.44;;;11.48;68.48
6778;BME280;3426;52.244;10.534;2023-02-13T07:28:27;102917.75;;;11.22;70.18
6778;BME280;3426;52.244;10.534;2023-02-13T07:30:54;102926.19;;;10.99;70.82
6778;BME280;3426;52.244;10.534;2023-02-13T07:33:22;102926.84;;;11.10;70.80
6778;BME280;3426;52.244;10.534;2023-02-13T07:35:50;102927.25;;;11.33;69.69
6778;BME280;3426;52.244;10.534;2023-02-13T07:38:17;102926.09;;;11.47;69.60
6778;BME280;3426;52.244;10.534;2023-02-13T07:40:44;102936.88;;;11.37;69.37
6778;BME280;3426;52.244;10.534;2023-02-13T07:43:11;102941.63;;;10.77;72.86
6778;BME280;3426;52.244;10.534;2023-02-13T07:45:38;102945.63;;;11.43;70.08
6778;BME280;3426;52.244;10.534;2023-02-13T07:48:04;102945.75;;;11.36;69.67
6778;BME280;3426;52.244;10.534;2023-02-13T07:50:31;102942.72;;;11.55;69.90
6778;BME280;3426;52.244;10.534;2023-02-13T07:52:59;102944.97;;;11.31;69.93
6778;BME280;3426;52.244;10.534;2023-02-13T07:55:28;102946.50;;;11.43;70.77
6778;BME280;3426;52.244;10.534;2023-02-13T07:57:55;102941.75;;;11.59;69.12
6778;BME280;3426;52.244;10.534;2023-02-13T08:00:22;102944.53;;;11.09;71.31
6778;BME280;3426;52.244;10.534;2023-02-13T08:02:49;102940.81;;;11.60;69.83
6778;BME280;3426;52.244;10.534;2023-02-13T08:05:15;102943.38;;;11.64;69.46
6778;BME280;3426;52.244;10.534;2023-02-13T08:07:42;102947.81;;;11.64;69.00
6778;BME280;3426;52.244;10.534;2023-02-13T08:10:11;102951.16;;;11.72;69.27
6778;BME280;3426;52.244;10.534;2023-02-13T08:12:56;102956.44;;;11.75;68.36
6778;BME280;3426;52.244;10.534;2023-02-13T08:15:23;102955.59;;;11.72;69.07
6778;BME280;3426;52.244;10.534;2023-02-13T08:17:49;102957.94;;;11.45;70.23
6778;BME280;3426;52.244;10.534;2023-02-13T08:20:16;102958.25;;;11.31;70.83
6778;BME280;3426;52.244;10.534;2023-02-13T08:22:42;102959.88;;;11.79;69.52
6778;BME280;3426;52.244;10.534;2023-02-13T08:25:09;102957.25;;;11.77;68.84
6778;BME280;3426;52.244;10.534;2023-02-13T08:27:35;102953.16;;;11.62;69.90
6778;BME280;3426;52.244;10.534;2023-02-13T08:30:03;102954.88;;;11.65;70.74
6778;BME280;3426;52.244;10.534;2023-02-13T08:32:30;102956.56;;;11.67;68.95
6778;BME280;3426;52.244;10.534;2023-02-13T08:35:16;102958.91;;;10.98;72.54
6778;BME280;3426;52.244;10.534;2023-02-13T08:37:43;102950.78;;;11.05;71.95
6778;BME280;3426;52.244;10.534;2023-02-13T08:40:13;102957.19;;;11.38;71.10
6778;BME280;3426;52.244;10.534;2023-02-13T08:42:39;102947.88;;;10.74;73.76
6778;BME280;3426;52.244;10.534;2023-02-13T08:45:06;102961.59;;;10.95;72.63
6778;BME280;3426;52.244;10.534;2023-02-13T08:47:32;102962.41;;;10.52;74.04
6778;BME280;3426;52.244;10.534;2023-02-13T08:49:59;102956.63;;;11.23;71.83
6778;BME280;3426;52.244;10.534;2023-02-13T08:52:25;102949.91;;;11.06;72.01
6778;BME280;3426;52.244;10.534;2023-02-13T08:54:52;102958.75;;;11.07;72.18
6778;BME280;3426;52.244;10.534;2023-02-13T08:57:18;102960.13;;;10.80;72.99
6778;BME280;3426;52.244;10.534;2023-02-13T08:59:45;102959.47;;;11.15;72.53
6778;BME280;3426;52.244;10.534;2023-02-13T09:02:11;102953.81;;;10.87;73.33
6778;BME280;3426;52.244;10.534;2023-02-13T09:04:38;102960.63;;;11.00;73.04
6778;BME280;3426;52.244;10.534;2023-02-13T09:07:05;102956.00;;;11.10;73.81
6778;BME280;3426;52.244;10.534;2023-02-13T09:09:32;102958.34;;;11.67;70.26
6778;BME280;3426;52.244;10.534;2023-02-13T09:11:58;102963.66;;;10.80;73.03
6778;BME280;3426;52.244;10.534;2023-02-13T09:14:26;102965.16;;;10.94;73.60
6778;BME280;3426;52.244;10.534;2023-02-13T09:16:52;102968.31;;;10.66;73.96
6778;BME280;3426;52.244;10.534;2023-02-13T09:19:19;102967.66;;;11.03;73.11
6778;BME280;3426;52.244;10.534;2023-02-13T09:21:45;102962.03;;;10.73;72.10
6778;BME280;3426;52.244;10.534;2023-02-13T09:24:12;102958.75;;;11.49;70.04
6778;BME280;3426;52.244;10.534;2023-02-13T09:26:38;102961.69;;;11.36;71.07
6778;BME280;3426;52.244;10.534;2023-02-13T09:29:05;102961.72;;;11.33;70.58
6778;BME280;3426;52.244;10.534;2023-02-13T09:31:31;102955.63;;;11.28;70.07
6778;BME280;3426;52.244;10.534;2023-02-13T09:33:58;102961.56;;;10.98;70.55
6778;BME280;3426;52.244;10.534;2023-02-13T09:36:24;102964.44;;;10.34;74.60
6778;BME280;3426;52.244;10.534;2023-02-13T09:38:53;102964.63;;;10.75;73.62
6778;BME280;3426;52.244;10.534;2023-02-13T09:41:25;102961.84;;;10.82;74.29
6778;BME280;3426;52.244;10.534;2023-02-13T09:44:03;102963.81;;;10.71;74.23
6778;BME280;3426;52.244;10.534;2023-02-13T09:46:32;102957.53;;;11.23;72.53
6778;BME280;3426;52.244;10.534;2023-02-13T09:49:04;102969.44;;;11.02;73.55
6778;BME280;3426;52.244;10.534;2023-02-13T09:51:32;102962.75;;;11.70;71.23
6778;BME280;3426;52.244;10.534;2023-02-13T09:54:04;102960.09;;;11.70;70.71
6778;BME280;3426;52.244;10.534;2023-02-13T10:01:45;102971.69;;;11.65;70.77
6778;BME280;3426;52.244;10.534;2023-02-13T10:04:26;102967.78;;;11.83;69.61
6778;BME280;3426;52.244;10.534;2023-02-13T10:07:12;102969.34;;;11.92;68.61
6778;BME280;3426;52.244;10.534;2023-02-13T10:12:27;102977.63;;;11.35;71.30
6778;BME280;3426;52.244;10.534;2023-02-13T10:18:02;102986.03;;;11.55;69.91
6778;BME280;3426;52.244;10.534;2023-02-13T10:20:38;102978.97;;;11.98;68.26
6778;BME280;3426;52.244;10.534;2023-02-13T10:26:01;102986.72;;;11.65;68.72
6778;BME280;3426;52.244;10.534;2023-02-13T10:28:43;102980.38;;;11.30;69.67
6778;BME280;3426;52.244;10.534;2023-02-13T10:31:17;102980.25;;;11.36;69.00
6778;BME280;3426;52.244;10.534;2023-02-13T10:33:52;102981.16;;;10.89;71.20
6778;BME280;3426;52.244;10.534;2023-02-13T10:36:26;102973.38;;;11.70;68.19
6778;BME280;3426;52.244;10.534;2023-02-13T10:39:01;102979.81;;;11.58;67.84
6778;BME280;3426;52.244;10.534;2023-02-13T10:44:44;102964.06;;;11.90;66.39
6778;BME280;3426;52.244;10.534;2023-02-13T10:53:15;102969.44;;;11.46;68.16
6778;BME280;3426;52.244;10.534;2023-02-13T11:01:45;102969.44;;;11.46;67.54
6778;BME280;3426;52.244;10.534;2023-02-13T11:04:17;102969.72;;;11.32;68.67
6778;BME280;3426;52.244;10.534;2023-02-13T11:06:58;102965.63;;;11.59;68.03
6778;BME280;3426;52.244;10.534;2023-02-13T11:09:26;102955.44;;;11.79;66.82
6778;BME280;3426;52.244;10.534;2023-02-13T11:11:53;102964.94;;;11.91;67.30
6778;BME280;3426;52.244;10.534;2023-02-13T11:14:22;102954.34;;;11.89;67.04
6778;BME280;3426;52.244;10.534;2023-02-13T11:17:00;102956.72;;;11.61;67.28
6778;BME280;3426;52.244;10.534;2023-02-13T11:20:02;102961.31;;;11.53;67.22
6778;BME280;3426;52.244;10.534;2023-02-13T11:25:01;102961.00;;;12.09;65.21
6778;BME280;3426;52.244;10.534;2023-02-13T11:27:34;102962.72;;;10.83;68.87
6778;BME280;3426;52.244;10.534;2023-02-13T11:35:44;102955.59;;;11.31;68.83
6778;BME280;3426;52.244;10.534;2023-02-13T11:41:07;102954.75;;;11.29;68.74
6778;BME280;3426;52.244;10.534;2023-02-13T11:43:36;102948.25;;;10.99;68.69
6778;BME280;3426;52.244;10.534;2023-02-13T11:48:42;102944.16;;;11.68;68.96
6778;BME280;3426;52.244;10.534;2023-02-13T11:51:09;102949.38;;;11.32;66.66
6778;BME280;3426;52.244;10.534;2023-02-13T11:53:37;102938.88;;;11.26;68.34
6778;BME280;3426;52.244;10.534;2023-02-13T11:58:34;102947.03;;;11.17;67.78
6778;BME280;3426;52.244;10.534;2023-02-13T12:04:16;102939.00;;;11.62;65.49
6778;BME280;3426;52.244;10.534;2023-02-13T12:07:02;102942.47;;;11.25;67.24
6778;BME280;3426;52.244;10.534;2023-02-13T12:09:30;102939.72;;;11.28;68.89
6778;BME280;3426;52.244;10.534;2023-02-13T12:12:00;102932.59;;;11.32;67.68
6778;BME280;3426;52.244;10.534;2023-02-13T12:14:31;102929.91;;;11.33;67.37
6778;BME280;3426;52.244;10.534;2023-02-13T12:17:03;102934.41;;;10.85;67.83
6778;BME280;3426;52.244;10.534;2023-02-13T12:19:38;102929.03;;;11.33;67.84
6778;BME280;3426;52.244;10.534;2023-02-13T12:22:12;102914.63;;;11.45;68.04
6778;BME280;3426;52.244;10.534;2023-02-13T12:36:20;102913.66;;;11.49;67.15
6778;BME280;3426;52.244;10.534;2023-02-13T12:39:21;102911.13;;;11.43;66.78
6778;BME280;3426;52.244;10.534;2023-02-13T12:47:21;102889.53;;;11.98;65.20
6778;BME280;3426;52.244;10.534;2023-02-13T12:59:16;102882.13;;;12.11;63.95
6778;BME280;3426;52.244;10.534;2023-02-13T13:04:28;102885.44;;;12.55;63.32
6778;BME280;3426;52.244;10.534;2023-02-13T13:09:51;102887.16;;;11.07;68.30
6778;BME280;3426;52.244;10.534;2023-02-13T13:12:25;102881.69;;;11.93;64.67
6778;BME280;3426;52.244;10.534;2023-02-13T13:15:04;102880.50;;;12.39;62.71
6778;BME280;3426;52.244;10.534;2023-02-13T13:23:10;102875.09;;;12.77;61.65
6778;BME280;3426;52.244;10.534;2023-02-13T13:28:27;102876.53;;;12.56;63.23
6778;BME280;3426;52.244;10.534;2023-02-13T13:30:56;102873.78;;;12.26;64.27
6778;BME280;3426;52.244;10.534;2023-02-13T13:33:25;102871.41;;;12.15;64.79
6778;BME280;3426;52.244;10.534;2023-02-13T13:36:14;102862.78;;;12.72;61.79
6778;BME280;3426;52.244;10.534;2023-02-13T13:41:39;102861.84;;;12.41;62.49
6778;BME280;3426;52.244;10.534;2023-02-13T13:46:53;102864.78;;;12.30;62.00
6778;BME280;3426;52.244;10.534;2023-02-13T13:49:47;102862.31;;;12.24;62.41
6778;BME280;3426;52.244;10.534;2023-02-13T13:54:45;102864.75;;;12.66;60.92
6778;BME280;3426;52.244;10.534;2023-02-13T13:57:18;102862.94;;;12.66;61.18
6778;BME280;3426;52.244;10.534;2023-02-13T14:07:43;102846.41;;;12.86;60.33
6778;BME280;3426;52.244;10.534;2023-02-13T14:12:47;102848.94;;;12.91;60.06
6778;BME280;3426;52.244;10.534;2023-02-13T14:20:49;102837.53;;;12.87;60.05
6778;BME280;3426;52.244;10.534;2023-02-13T14:34:05;102841.00;;;12.60;60.21
6778;BME280;3426;52.244;10.534;2023-02-13T14:36:38;102835.84;;;12.54;61.03
6778;BME280;3426;52.244;10.534;2023-02-13T14:44:33;102833.91;;;12.59;58.24
6778;BME280;3426;52.244;10.534;2023-02-13T14:47:10;102833.66;;;12.37;59.31
6778;BME280;3426;52.244;10.534;2023-02-13T14:49:40;102842.28;;;12.11;59.46
6778;BME280;3426;52.244;10.534;2023-02-13T14:52:18;102838.09;;;12.67;60.65
6778;BME280;3426;52.244;10.534;2023-02-13T14:54:53;102843.75;;;12.88;59.22
6778;BME280;3426;52.244;10.534;2023-02-13T14:57:27;102833.81;;;12.93;58.40
6778;BME280;3426;52.244;10.534;2023-02-13T14:59:58;102834.84;;;12.87;58.38
6778;BME280;3426;52.244;10.534;2023-02-13T15:02:30;102833.41;;;12.77;57.92
6778;BME280;3426;52.244;10.534;2023-02-13T15:05:05;102840.34;;;12.81;58.97
6778;BME280;3426;52.244;10.534;2023-02-13T15:07:39;102838.00;;;12.70;57.64
6778;BME280;3426;52.244;10.534;2023-02-13T15:12:59;102833.91;;;12.59;56.44
6778;BME280;3426;52.244;10.534;2023-02-13T15:15:31;102828.41;;;12.65;56.01
6778;BME280;3426;52.244;10.534;2023-02-13T15:18:06;102825.59;;;12.71;55.67
6778;BME280;3426;52.244;10.534;2023-02-13T15:20:35;102831.00;;;12.35;57.50
6778;BME280;3426;52.244;10.534;2023-02-13T15:23:03;102828.56;;;12.28;57.13
6778;BME280;3426;52.244;10.534;2023-02-13T15:25:34;102830.53;;;12.54;56.54
6778;BME280;3426;52.244;10.534;2023-02-13T15:28:03;102831.69;;;12.74;56.79
6778;BME280;3426;52.244;10.534;2023-02-13T15:30:36;102827.69;;;12.27;56.92
6778;BME280;3426;52.244;10.534;2023-02-13T15:33:16;102822.69;;;12.49;57.42
6778;BME280;3426;52.244;10.534;2023-02-13T15:35:43;102824.44;;;12.16;58.19
6778;BME280;3426;52.244;10.534;2023-02-13T15:41:05;102821.69;;;12.19;58.76
6778;BME280;3426;52.244;10.534;2023-02-13T15:43:35;102821.97;;;12.42;59.24
6778;BME280;3426;52.244;10.534;2023-02-13T15:46:16;102821.97;;;12.42;57.85
6778;BME280;3426;52.244;10.534;2023-02-13T15:48:44;102823.44;;;12.54;58.61
6778;BME280;3426;52.244;10.534;2023-02-13T15:51:22;102822.22;;;12.66;58.29
6778;BME280;3426;52.244;10.534;2023-02-13T15:53:54;102819.97;;;12.51;57.90
6778;BME280;3426;52.244;10.534;2023-02-13T15:56:21;102824.53;;;12.13;59.30
6778;BME280;3426;52.244;10.534;2023-02-13T15:58:49;102828.06;;;11.39;61.58
6778;BME280;3426;52.244;10.534;2023-02-13T16:01:17;102823.69;;;11.75;60.68